createdAt,value
2023-03-10T00:00:12.749Z,18.65
2023-03-10T00:05:15.171Z,16.15
2023-03-10T00:10:18.496Z,20.80
2023-03-10T00:15:22.115Z,20.15
2023-03-10T00:20:24.247Z,18.65
2023-03-10T00:25:26.411Z,14.05
2023-03-10T00:30:31.918Z,21.83
2023-03-10T00:35:35.208Z,19.10
2023-03-10T00:40:37.299Z,18.13
2023-03-10T00:45:40.809Z,22.15
2023-03-10T00:50:42.961Z,21.00
2023-03-10T00:55:56.755Z,22.25
2023-03-10T01:01:01.103Z,22.27
2023-03-10T01:06:03.370Z,20.90
2023-03-10T01:11:05.985Z,15.20
2023-03-10T01:16:09.844Z,20.35
2023-03-10T01:21:20.560Z,21.85
2023-03-10T01:26:23.167Z,21.27
2023-03-10T01:31:26.794Z,22.50
2023-03-10T01:36:29.204Z,24.23
2023-03-10T01:41:31.351Z,21.08
2023-03-10T01:46:45.077Z,20.00
2023-03-10T01:51:51.616Z,21.55
2023-03-10T01:56:56.243Z,22.77
2023-03-10T02:02:01.877Z,25.85
2023-03-10T02:07:06.188Z,18.90
2023-03-10T02:12:10.095Z,19.48
2023-03-10T02:17:16.520Z,20.98
2023-03-10T02:22:18.771Z,22.53
2023-03-10T02:27:24.318Z,19.10
2023-03-10T02:32:27.780Z,21.67
2023-03-10T02:37:32.356Z,24.13
2023-03-10T02:42:36.708Z,21.80
2023-03-10T02:47:38.876Z,26.23
2023-03-10T02:52:47.036Z,20.33
2023-03-10T02:57:50.519Z,24.58
2023-03-10T03:02:52.662Z,24.17
2023-03-10T03:07:54.727Z,21.55
2023-03-10T03:12:58.260Z,20.77
2023-03-10T03:18:01.499Z,25.23
2023-03-10T03:23:04.670Z,27.27
2023-03-10T03:28:10.320Z,26.45
2023-03-10T03:33:12.441Z,35.78
2023-03-10T03:38:14.557Z,29.25
2023-03-10T03:43:18.043Z,44.85
2023-03-10T03:48:22.327Z,43.95
2023-03-10T03:53:24.901Z,44.60
2023-03-10T03:58:28.359Z,39.28
2023-03-10T04:03:30.605Z,38.28
2023-03-10T04:08:32.797Z,34.83
2023-03-10T04:13:36.369Z,25.08
2023-03-10T04:18:38.475Z,26.98
2023-03-10T04:23:40.633Z,24.55
2023-03-10T04:28:44.171Z,23.88
2023-03-10T04:33:46.977Z,25.98
2023-03-10T04:38:49.185Z,25.48
2023-03-10T04:43:52.806Z,27.90
2023-03-10T04:48:54.878Z,15.00
2023-03-10T04:53:57.317Z,26.05
2023-03-10T04:59:00.866Z,22.17
2023-03-10T05:04:05.327Z,22.40
2023-03-10T05:14:36.324Z,18.33
2023-03-10T05:19:39.114Z,20.33
2023-03-10T05:24:41.236Z,18.40
2023-03-10T05:29:44.800Z,22.88
2023-03-10T05:34:46.925Z,24.08
2023-03-10T05:39:49.013Z,23.67
2023-03-10T05:44:52.660Z,23.45
2023-03-10T05:49:54.872Z,24.42
2023-03-10T05:54:56.954Z,25.30
2023-03-10T06:00:01.751Z,23.60
2023-03-10T06:05:04.032Z,22.98
2023-03-10T06:10:08.115Z,22.67
2023-03-10T06:15:12.413Z,21.52
2023-03-10T06:20:15.543Z,24.98
2023-03-10T06:25:18.170Z,23.02
2023-03-10T06:30:22.620Z,23.50
2023-03-10T06:35:25.729Z,21.05
2023-03-10T06:40:28.208Z,21.98
2023-03-10T06:45:32.176Z,22.92
2023-03-10T06:50:34.760Z,20.50
2023-03-10T06:55:37.999Z,21.75
2023-03-10T07:00:42.163Z,22.23
2023-03-10T07:05:44.603Z,24.95
2023-03-10T07:10:47.018Z,26.33
2023-03-10T07:15:51.040Z,27.40
2023-03-10T07:20:53.801Z,26.75
2023-03-10T07:25:57.849Z,28.42
2023-03-10T07:31:05.502Z,25.90
2023-03-10T07:36:10.321Z,30.35
2023-03-10T07:41:15.910Z,23.60
2023-03-10T07:46:19.804Z,21.88
2023-03-10T07:51:22.331Z,30.27
2023-03-10T07:56:24.826Z,22.45
2023-03-10T08:01:28.950Z,19.15
2023-03-10T08:06:31.475Z,27.63
2023-03-10T08:11:33.898Z,27.67
2023-03-10T08:16:38.363Z,26.13
2023-03-10T08:21:41.141Z,25.70
2023-03-10T08:26:43.839Z,21.95
2023-03-10T08:31:47.794Z,22.42
2023-03-10T08:36:50.308Z,25.17
2023-03-10T08:41:52.707Z,29.85
2023-03-10T08:46:56.758Z,22.23
2023-03-10T08:51:59.491Z,22.75
2023-03-10T08:57:02.196Z,24.02
2023-03-10T09:02:06.595Z,25.15
2023-03-10T09:07:09.730Z,27.70
2023-03-10T09:12:12.900Z,20.48
2023-03-10T09:17:16.785Z,11.60
2023-03-10T09:22:19.419Z,24.77
2023-03-10T09:27:21.792Z,26.15
2023-03-10T09:32:26.021Z,30.58
2023-03-10T09:37:28.693Z,22.67
2023-03-10T09:42:38.714Z,20.95
2023-03-10T09:47:53.965Z,20.52
2023-03-10T09:53:03.046Z,22.40
2023-03-10T09:58:05.870Z,21.85
2023-03-10T10:03:18.555Z,21.88
2023-03-10T10:08:25.247Z,24.02
2023-03-10T10:13:30.115Z,21.75
2023-03-10T10:18:40.099Z,22.27
2023-03-10T10:23:46.612Z,26.05
2023-03-10T10:28:53.971Z,23.40
2023-03-10T10:34:00.569Z,22.70
2023-03-10T10:39:05.378Z,23.80
2023-03-10T10:44:13.505Z,22.52
2023-03-10T10:49:24.501Z,21.45
2023-03-10T10:54:29.577Z,21.48
2023-03-10T10:59:33.521Z,23.10
2023-03-10T11:04:44.579Z,22.63
2023-03-10T11:09:47.644Z,22.13
2023-03-10T11:15:14.923Z,19.95
2023-03-10T11:20:28.872Z,22.30
2023-03-10T11:25:38.659Z,22.02
2023-03-10T11:30:49.235Z,20.58
2023-03-10T11:35:58.633Z,17.38
2023-03-10T11:41:13.754Z,20.23
2023-03-10T11:46:23.464Z,19.00
2023-03-10T11:51:34.759Z,22.80
2023-03-10T11:56:39.404Z,17.15
2023-03-10T12:01:47.506Z,20.20
2023-03-10T12:06:59.506Z,18.52
2023-03-10T12:12:04.867Z,19.45
2023-03-10T12:17:11.618Z,17.92
2023-03-10T12:22:34.214Z,18.67
2023-03-10T12:28:10.330Z,15.57
2023-03-10T12:33:41.264Z,21.42
2023-03-10T12:38:50.308Z,22.92
2023-03-10T12:43:58.511Z,20.13
2023-03-10T12:49:14.385Z,18.20
2023-03-10T12:54:52.980Z,17.35
2023-03-10T13:00:03.093Z,19.30
2023-03-10T13:05:16.676Z,17.48
2023-03-10T13:10:23.635Z,18.15
2023-03-10T13:15:30.025Z,18.92
2023-03-10T13:20:37.456Z,19.47
2023-03-10T13:25:52.012Z,17.77
2023-03-10T13:31:09.331Z,18.60
2023-03-10T13:36:29.674Z,19.13
2023-03-10T13:41:33.874Z,16.35
2023-03-10T13:46:36.359Z,17.42
2023-03-10T13:51:38.853Z,17.73
2023-03-10T13:56:44.366Z,19.48
2023-03-10T14:01:49.079Z,16.85
2023-03-10T14:07:09.893Z,18.52
2023-03-10T14:12:14.628Z,19.02
2023-03-10T14:17:31.244Z,16.35
2023-03-10T14:22:36.417Z,18.85
2023-03-10T14:27:43.328Z,18.25
2023-03-10T14:32:45.970Z,18.75
2023-03-10T14:37:48.555Z,19.70
2023-03-10T14:42:54.223Z,19.25
2023-03-10T14:47:58.544Z,18.83
2023-03-10T14:53:01.313Z,19.15
2023-03-10T14:58:06.228Z,21.20
2023-03-10T15:03:11.691Z,18.35
2023-03-10T15:08:14.379Z,21.98
2023-03-10T15:13:21.587Z,19.00
2023-03-10T15:18:25.715Z,18.25
2023-03-10T15:23:30.466Z,18.05
2023-03-10T15:28:36.250Z,19.55
2023-03-10T15:33:41.832Z,18.75
2023-03-10T15:38:47.159Z,17.35
2023-03-10T15:43:59.415Z,20.05
2023-03-10T15:49:05.487Z,20.02
2023-03-10T15:54:12.108Z,19.33
2023-03-10T15:59:47.885Z,17.30
2023-03-10T16:10:22.240Z,17.23
2023-03-10T16:15:29.418Z,20.30
2023-03-10T16:26:18.506Z,17.23
2023-03-10T16:31:24.641Z,16.15
2023-03-10T16:36:28.744Z,16.63
2023-03-10T16:41:31.730Z,15.65
2023-03-10T16:46:39.797Z,16.90
2023-03-10T16:51:44.392Z,14.48
2023-03-10T16:56:49.250Z,12.15
2023-03-10T17:01:58.404Z,15.75
2023-03-10T17:07:12.346Z,13.55
2023-03-10T17:12:29.668Z,14.32
2023-03-10T17:17:43.583Z,13.18
2023-03-10T17:22:46.252Z,14.73
2023-03-10T17:27:50.994Z,14.40
2023-03-10T17:32:55.382Z,12.30
2023-03-10T17:37:57.893Z,15.82
2023-03-10T17:43:13.191Z,15.60
2023-03-10T17:48:29.341Z,13.18
2023-03-10T17:53:32.672Z,13.80
2023-03-10T17:58:40.583Z,15.18
2023-03-10T18:03:48.059Z,12.48
2023-03-10T18:08:54.232Z,13.75
2023-03-10T18:13:58.623Z,14.85
2023-03-10T18:19:03.262Z,14.75
2023-03-10T18:24:06.236Z,12.73
2023-03-10T18:29:12.340Z,12.63
2023-03-10T18:34:19.400Z,12.85
2023-03-10T18:44:23.863Z,9.70
2023-03-10T18:49:27.813Z,8.82
2023-03-10T18:54:30.395Z,8.27
2023-03-10T18:59:34.580Z,11.63
2023-03-10T19:04:38.897Z,8.68
2023-03-10T19:09:41.494Z,9.82
2023-03-10T19:14:43.935Z,7.30
2023-03-10T19:19:47.954Z,9.95
2023-03-10T19:24:52.670Z,8.93
2023-03-10T19:30:01.007Z,11.10
2023-03-10T19:35:06.965Z,10.30
2023-03-10T19:40:13.225Z,9.25
2023-03-10T19:45:18.058Z,7.53
2023-03-10T19:50:26.152Z,8.52
2023-03-10T19:55:29.481Z,6.63
2023-03-10T20:00:42.378Z,8.52
2023-03-10T20:05:47.098Z,5.43
2023-03-10T20:10:49.823Z,6.80
2023-03-10T20:15:52.148Z,4.85
2023-03-10T20:21:05.930Z,4.35
2023-03-10T20:26:10.590Z,1.60
2023-03-10T20:31:31.169Z,3.42
2023-03-10T20:36:38.658Z,2.75
2023-03-10T20:41:48.665Z,3.20
2023-03-10T20:46:53.923Z,2.42
2023-03-10T20:51:57.809Z,3.08
2023-03-10T20:57:00.198Z,1.35
2023-03-10T21:02:03.111Z,3.05
2023-03-10T21:07:25.930Z,4.55
2023-03-10T21:18:10.620Z,4.30
2023-03-10T21:23:17.315Z,1.27
2023-03-10T21:28:24.440Z,5.03
2023-03-10T21:33:28.864Z,5.22
2023-03-10T21:38:37.452Z,6.18
2023-03-10T21:43:39.919Z,2.10
2023-03-10T21:48:45.789Z,2.25
2023-03-10T21:53:54.889Z,4.82
2023-03-10T21:59:01.619Z,4.35
2023-03-10T22:09:23.359Z,4.18
2023-03-10T22:14:25.678Z,5.05
2023-03-10T22:19:27.954Z,2.97
2023-03-10T22:24:31.962Z,3.72
2023-03-10T22:29:34.217Z,2.67
2023-03-10T22:34:36.529Z,1.80
2023-03-10T22:39:40.825Z,2.33
2023-03-10T22:44:43.051Z,4.10
2023-03-10T22:49:45.453Z,4.03
2023-03-10T22:54:49.301Z,7.97
2023-03-10T23:00:10.827Z,5.45
2023-03-10T23:05:13.817Z,3.15
2023-03-10T23:10:22.411Z,1.55
2023-03-10T23:15:27.640Z,2.75
2023-03-10T23:20:33.409Z,3.38
2023-03-10T23:25:43.549Z,2.75
2023-03-10T23:30:49.910Z,5.40
2023-03-10T23:35:55.559Z,2.63
2023-03-10T23:40:59.775Z,1.95
2023-03-10T23:46:04.275Z,5.47
2023-03-10T23:51:13.528Z,6.43
2023-03-10T23:56:18.165Z,2.13
